map of INZ home
INZ - Airport
Location
City:  In Salah, Tamanrasset, Algeria
Name:In Salah Airport
ICAO:DAUI
IATA:INZ

Details
Type:Airport (Aerodrome, Airfield)
Use:Public/Civil, International (customs port of entry)
Latitude:2715'13"N (27.253611)
Longitude:230'39"E (2.510833)
Elevation:896 ft (273 m)
Variation:0.53E (WMM2015 magnetic declination)
0.09 annual change
Runways:1
Longest:9843 × 148 ft (3000 × 45 m)

Time
Time Zone:UTC+1
Local Time:

Weather
TAF:DAUI 111700Z 1118/1218 VRB02KT CAVOK
BECMG 123/1202 06010KT
BECMG 1210/1212 VRB02KT

Related Locations
Nearby:
Farthest:EUA: 11997 mi / 19308 km
Eua [Kaufana], TO

Find:

   beyond  
but within

Other Information
Maps:
NOTAMs:
Links:
Sources:

  
  • flag of Algeria
  

Sectional Chart

Flight Planning
at skyvector.com

Satellite Image

Google Maps Satellite view

 

Copyright © 2004-2018 Karl L. Swartz. All rights reserved.
The Great Circle Mapper name and logo are trademarks of the Great Circle Mapper.
All other trademarks mentioned herein belong to their respective owners.
Please see credits for attibutions and further copyright information.

  Follow gcmap on Facebook Follow gcmap on Twitter Follow gcmap on Google+ GCmap on LinkedIn

hCard Microformat

Geo Microformat